Time;durP1;ratioP1;P1;durP2;ratioP2;P2;SDS_P1;SDS_P2;PMS_P1;PMS_P2;Temp;Humidity;BMP_temperature;BMP_pressure;BME280_temperature;BME280_humidity;BME280_pressure;Samples;Min_cycle;Max_cycle;Signal;HPM_P1;HPM_P2
2022/11/24 00:00:23;;;;;;;26.80;12.35;;;;;;;13.30;86.26;99689.31;5052866;28;20029;-76
2022/11/24 00:02:49;;;;;;;18.25;11.77;;;;;;;13.55;86.43;99730.75;5052887;28;20029;-77
2022/11/24 00:05:14;;;;;;;21.75;9.85;;;;;;;13.52;86.73;99731.94;5052438;28;20048;-76
2022/11/24 00:07:40;;;;;;;18.42;9.10;;;;;;;13.46;87.07;99726.34;5052732;28;20036;-76
2022/11/24 00:10:05;;;;;;;18.63;9.10;;;;;;;13.40;87.14;99727.00;5052345;28;20457;-77
2022/11/24 00:12:31;;;;;;;20.60;9.98;;;;;;;13.37;87.30;99713.81;5052157;28;20053;-76
2022/11/24 00:14:57;;;;;;;20.42;10.52;;;;;;;13.40;87.37;99722.44;5052550;28;20095;-76
2022/11/24 00:17:23;;;;;;;18.20;9.45;;;;;;;13.37;86.76;99724.63;5052581;28;20044;-75
2022/11/24 00:19:48;;;;;;;24.40;9.55;;;;;;;13.35;86.59;99735.59;5052439;28;20186;-75
2022/11/24 00:22:13;;;;;;;18.08;8.57;;;;;;;13.24;86.76;99735.06;5052413;28;20122;-76
2022/11/24 00:24:39;;;;;;;23.77;9.35;;;;;;;13.00;87.60;99716.88;5052418;28;20048;-75
2022/11/24 00:27:05;;;;;;;19.63;8.85;;;;;;;13.06;87.94;99719.75;5055219;28;20025;-76
2022/11/24 00:29:30;;;;;;;18.73;10.40;;;;;;;13.13;88.27;99721.84;5053526;28;20040;-76
2022/11/24 00:31:56;;;;;;;19.70;9.68;;;;;;;13.15;88.70;99723.38;5052472;28;20029;-75
2022/11/24 00:34:21;;;;;;;21.95;8.85;;;;;;;13.15;88.17;99722.53;5052246;28;20385;-76
2022/11/24 00:36:47;;;;;;;24.38;10.07;;;;;;;13.08;88.25;99728.59;5056118;28;20035;-76
2022/11/24 00:39:14;;;;;;;25.90;11.43;;;;;;;13.07;87.97;99731.41;5056879;28;20087;-76
2022/11/24 00:41:40;;;;;;;48.97;16.92;;;;;;;13.04;87.75;99737.13;5055049;28;20107;-77
2022/11/24 00:44:06;;;;;;;42.65;17.13;;;;;;;12.95;87.89;99720.06;5052345;28;20458;-76
2022/11/24 00:46:32;;;;;;;35.20;13.18;;;;;;;13.02;88.24;99737.31;5052157;28;20025;-75
2022/11/24 00:48:59;;;;;;;21.30;9.48;;;;;;;13.05;88.09;99745.09;5052141;28;20133;-75
2022/11/24 00:51:31;;;;;;;35.10;13.10;;;;;;;12.88;88.27;99710.91;5051767;28;20226;-76
2022/11/24 00:53:57;;;;;;;;;;;;;;;13.01;88.45;99732.06;5052299;28;20132;-75
2022/11/24 00:56:24;;;;;;;16.92;7.25;;;;;;;12.82;88.54;99705.31;5051820;28;20411;-76
2022/11/24 00:58:50;;;;;;;20.52;8.23;;;;;;;12.97;88.79;99731.53;5052172;28;20052;-76
2022/11/24 01:01:18;;;;;;;24.33;10.65;;;;;;;12.95;88.61;99728.16;5051708;28;20064;-76
2022/11/24 01:03:45;;;;;;;18.08;8.13;;;;;;;12.92;88.76;99728.50;5051418;28;20040;-76
2022/11/24 01:06:19;;;;;;;18.30;7.05;;;;;;;12.61;88.46;99686.84;5051934;28;20021;-74
2022/11/24 01:08:45;;;;;;;22.98;7.20;;;;;;;12.76;89.00;99723.00;5051322;28;20557;-76
2022/11/24 01:11:20;;;;;;;13.55;5.90;;;;;;;12.82;89.19;99733.16;5049153;28;20124;-76
2022/11/24 01:13:48;;;;;;;11.48;6.18;;;;;;;12.87;88.68;99724.59;5051483;28;20029;-76
2022/11/24 01:16:21;;;;;;;8.38;5.43;;;;;;;12.89;88.60;99727.97;5051308;28;20520;-76
2022/11/24 01:18:47;;;;;;;18.95;6.38;;;;;;;12.75;88.69;99724.00;5051058;28;20025;-76
2022/11/24 01:21:14;;;;;;;15.10;6.20;;;;;;;12.66;89.11;99716.06;5051230;28;20098;-76
2022/11/24 01:23:39;;;;;;;21.30;5.60;;;;;;;12.75;88.87;99726.69;5051076;28;20047;-76
2022/11/24 01:26:06;;;;;;;13.75;6.22;;;;;;;12.71;88.60;99719.94;5049718;28;20037;-75
2022/11/24 01:28:32;;;;;;;12.25;5.38;;;;;;;12.78;88.20;99715.59;5051278;28;20055;-76
2022/11/24 01:31:03;;;;;;;19.23;5.80;;;;;;;12.80;87.85;99718.13;5051572;28;20104;-75
2022/11/24 01:33:29;;;;;;;14.00;6.10;;;;;;;12.77;87.60;99711.22;5051407;28;20399;-75
2022/11/24 01:35:56;;;;;;;11.95;5.78;;;;;;;12.80;87.74;99715.44;5051585;28;20029;-76
2022/11/24 01:38:21;;;;;;;11.70;6.13;;;;;;;12.70;87.67;99706.59;5052587;28;20059;-77
2022/11/24 01:40:47;;;;;;;13.80;5.78;;;;;;;12.57;87.62;99707.03;5052709;28;20029;-75
2022/11/24 01:43:19;;;;;;;16.55;6.45;;;;;;;12.54;88.23;99715.44;5051822;28;20381;-76
2022/11/24 01:45:45;;;;;;;;;;;;;;;12.57;88.33;99707.03;5053724;28;20432;-75
2022/11/24 01:48:21;;;;;;;9.85;4.18;;;;;;;12.54;88.33;99707.34;5054614;28;19912;-75
2022/11/24 01:50:54;;;;;;;12.68;4.78;;;;;;;12.51;88.27;99699.59;5053385;28;20040;-76
2022/11/24 01:53:21;;;;;;;10.60;4.50;;;;;;;12.52;88.34;99704.84;5053690;28;20032;-75
2022/11/24 01:55:47;;;;;;;15.23;4.70;;;;;;;12.62;87.84;99699.34;5052931;28;20020;-75
2022/11/24 01:58:19;;;;;;;10.20;4.55;;;;;;;12.47;87.87;99706.34;5052205;28;20078;-77
2022/11/24 02:00:44;;;;;;;15.20;5.38;;;;;;;12.51;87.77;99710.38;5051178;28;20504;-75
2022/11/24 02:03:17;;;;;;;7.18;4.65;;;;;;;12.33;88.29;99672.69;5051107;28;20120;-76
2022/11/24 02:05:48;;;;;;;14.35;4.38;;;;;;;12.51;87.46;99703.13;5050734;28;20025;-77
2022/11/24 02:08:25;;;;;;;13.85;5.10;;;;;;;12.35;87.64;99664.47;5050838;28;20416;-77
2022/11/24 02:10:50;;;;;;;14.02;4.20;;;;;;;12.55;87.51;99690.19;5050480;28;20017;-74
2022/11/24 02:13:16;;;;;;;16.77;6.20;;;;;;;12.62;87.17;99699.34;5050459;28;20069;-75
2022/11/24 02:15:42;;;;;;;16.35;4.40;;;;;;;12.65;87.09;99698.16;5051088;28;20040;-76
2022/11/24 02:18:07;;;;;;;7.60;4.43;;;;;;;12.53;86.31;99703.00;5052724;28;20323;-75
2022/11/24 02:20:33;;;;;;;18.08;4.18;;;;;;;12.53;86.17;99705.69;5053395;28;20025;-76
2022/11/24 02:23:04;;;;;;;12.73;4.20;;;;;;;12.57;86.50;99705.19;5053334;28;20033;-76
2022/11/24 02:26:03;;;;;;;11.57;3.90;;;;;;;12.48;86.31;99708.00;5050819;28;20028;-76
2022/11/24 02:28:30;;;;;;;13.10;3.50;;;;;;;12.46;86.27;99704.63;5008460;28;20057;-75
2022/11/24 02:30:56;;;;;;;11.55;4.10;;;;;;;12.32;86.39;99687.16;5008260;28;20116;-75
2022/11/24 02:33:24;;;;;;;9.43;4.50;;;;;;;12.43;86.17;99694.16;5008444;28;20076;-75
2022/11/24 02:35:50;;;;;;;11.35;4.40;;;;;;;12.30;86.12;99685.63;5008154;28;20425;-76
2022/11/24 02:38:15;;;;;;;5.18;3.05;;;;;;;12.24;86.33;99681.72;5008269;28;20109;-76
2022/11/24 02:40:45;;;;;;;13.13;3.80;;;;;;;12.33;86.29;99694.25;5008310;28;20491;-76
2022/11/24 02:43:18;;;;;;;9.23;4.10;;;;;;;12.32;86.19;99697.13;5008226;28;20036;-77
2022/11/24 02:45:43;;;;;;;13.25;3.83;;;;;;;12.32;86.83;99691.75;5008077;28;20046;-76
2022/11/24 02:48:09;;;;;;;18.25;5.00;;;;;;;12.32;86.66;99694.44;5007867;28;20044;-76
2022/11/24 02:50:34;;;;;;;12.40;4.68;;;;;;;12.00;86.95;99657.31;5007940;28;20042;-75
2022/11/24 02:53:00;;;;;;;14.80;4.07;;;;;;;12.18;86.97;99684.22;5009936;28;20081;-75
2022/11/24 02:55:25;;;;;;;11.82;4.97;;;;;;;12.29;87.23;99698.25;5014802;28;20018;-76
2022/11/24 02:57:51;;;;;;;21.25;4.82;;;;;;;12.22;87.46;99697.22;5014570;28;20426;-76
2022/11/24 03:00:17;;;;;;;26.40;4.80;;;;;;;12.35;87.35;99718.38;4976644;28;20417;-75
2022/11/24 03:02:42;;;;;;;14.40;3.88;;;;;;;12.23;87.55;99704.28;5008390;28;20515;-77
2022/11/24 03:05:08;;;;;;;9.77;3.92;;;;;;;12.26;86.52;99708.56;5033519;28;20040;-77
2022/11/24 03:07:33;;;;;;;14.05;3.45;;;;;;;12.28;85.69;99712.78;5049986;28;20035;-76
2022/11/24 03:09:59;;;;;;;9.15;3.45;;;;;;;12.22;85.51;99716.09;5049772;28;20033;-77
2022/11/24 03:12:25;;;;;;;14.75;3.33;;;;;;;11.99;86.11;99693.34;5049986;28;20037;-76
2022/11/24 03:14:50;;;;;;;46.17;21.77;;;;;;;11.96;86.40;99685.56;5049916;28;20503;-76
2022/11/24 03:17:16;;;;;;;12.30;5.55;;;;;;;12.00;86.02;99712.06;5049766;28;20025;-75
2022/11/24 03:19:41;;;;;;;8.93;4.13;;;;;;;11.94;86.81;99710.00;5050438;28;20440;-76
2022/11/24 03:22:07;;;;;;;7.32;2.95;;;;;;;11.79;87.19;99681.91;5051612;28;20029;-75
2022/11/24 03:24:32;;;;;;;18.30;3.97;;;;;;;11.84;86.86;99682.28;5051536;28;20029;-76
2022/11/24 03:26:57;;;;;;;11.55;5.35;;;;;;;11.95;86.81;99722.47;5052347;28;20025;-76
2022/11/24 03:29:23;;;;;;;16.73;4.38;;;;;;;12.00;87.25;99714.75;5052779;28;20021;-76
2022/11/24 03:31:48;;;;;;;9.77;3.97;;;;;;;12.05;87.18;99729.63;5049410;28;20041;-75
2022/11/24 03:34:14;;;;;;;14.32;3.38;;;;;;;12.08;87.49;99737.38;5049270;28;20491;-76
2022/11/24 03:36:39;;;;;;;9.77;3.38;;;;;;;12.08;87.00;99732.81;5049557;28;20052;-76
2022/11/24 03:39:05;;;;;;;16.38;4.25;;;;;;;12.07;86.44;99731.16;5049322;28;20033;-76
2022/11/24 03:41:31;;;;;;;14.88;4.15;;;;;;;11.87;86.69;99703.53;5049404;28;20404;-76
2022/11/24 03:43:57;;;;;;;13.38;3.78;;;;;;;12.14;86.81;99742.16;5049374;28;20027;-76
2022/11/24 03:46:22;;;;;;;14.77;3.38;;;;;;;12.16;87.23;99748.22;5049447;28;20033;-76
2022/11/24 03:48:47;;;;;;;24.35;5.38;;;;;;;12.20;86.60;99755.00;5049141;28;20045;-76
2022/11/24 03:51:13;;;;;;;12.93;3.53;;;;;;;12.14;86.43;99742.97;5049723;28;20032;-76
2022/11/24 03:53:38;;;;;;;12.27;3.85;;;;;;;12.19;86.64;99761.38;5049404;28;20056;-75
2022/11/24 03:56:04;;;;;;;17.60;4.35;;;;;;;12.08;85.76;99753.56;5051069;28;20029;-75
2022/11/24 03:58:30;;;;;;;20.65;4.50;;;;;;;12.10;85.95;99757.78;5050063;28;20087;-76
2022/11/24 04:00:56;;;;;;;20.38;4.35;;;;;;;11.98;85.73;99762.56;5049504;28;20456;-75
2022/11/24 04:03:22;;;;;;;13.90;3.45;;;;;;;12.02;85.91;99764.97;5058449;28;20447;-77
2022/11/24 04:05:48;;;;;;;10.55;3.47;;;;;;;11.91;86.70;99755.25;5056931;28;20025;-75
2022/11/24 04:08:14;;;;;;;17.50;4.47;;;;;;;12.07;86.66;99762.63;5050356;28;20044;-76
2022/11/24 04:10:40;;;;;;;18.27;5.13;;;;;;;12.14;86.54;99763.72;5050276;28;20373;-75
2022/11/24 04:13:14;;;;;;;15.32;4.38;;;;;;;12.22;86.28;99764.63;5053862;28;20028;-75
2022/11/24 04:15:40;;;;;;;13.55;5.13;;;;;;;12.28;86.39;99771.25;5052992;28;20025;-76
2022/11/24 04:18:07;;;;;;;17.23;4.75;;;;;;;12.24;85.86;99775.22;5053072;28;20029;-76
2022/11/24 04:20:33;;;;;;;9.90;4.70;;;;;;;12.04;86.01;99752.16;5052745;28;20028;-76
2022/11/24 04:22:59;;;;;;;15.68;6.13;;;;;;;12.25;85.47;99772.41;5053280;28;20098;-76
2022/11/24 04:25:24;;;;;;;16.30;7.63;;;;;;;12.28;85.54;99779.31;5052609;28;20561;-75
2022/11/24 04:27:51;;;;;;;22.63;10.50;;;;;;;12.29;85.77;99789.13;5052851;28;20033;-76
2022/11/24 04:30:18;;;;;;;17.60;10.15;;;;;;;12.29;84.93;99778.34;5052767;28;20025;-75
2022/11/24 04:32:44;;;;;;;14.73;10.13;;;;;;;12.07;84.68;99736.53;5052217;28;20040;-76
2022/11/24 04:35:10;;;;;;;19.17;9.25;;;;;;;12.28;84.56;99776.63;5050788;28;20028;-75
2022/11/24 04:37:35;;;;;;;26.35;12.05;;;;;;;12.26;84.64;99765.16;5052131;28;20466;-76
2022/11/24 04:40:01;;;;;;;26.05;13.23;;;;;;;12.31;84.34;99785.25;5052399;28;20017;-75
2022/11/24 04:42:26;;;;;;;17.90;12.40;;;;;;;12.35;83.76;99783.09;5051748;28;20033;-75
2022/11/24 04:44:52;;;;;;;19.48;10.48;;;;;;;12.23;83.66;99774.38;5052324;28;20033;-77
2022/11/24 04:47:20;;;;;;;18.77;10.90;;;;;;;12.33;83.64;99785.94;5054583;28;20040;-76
2022/11/24 04:49:47;;;;;;;21.10;12.13;;;;;;;12.32;83.60;99788.81;5053061;28;20084;-76
2022/11/24 04:52:13;;;;;;;24.20;13.48;;;;;;;12.30;83.16;99791.63;5052803;28;20025;-76
2022/11/24 04:54:38;;;;;;;21.73;12.35;;;;;;;12.27;83.23;99785.72;5052102;28;20078;-76
2022/11/24 04:57:04;;;;;;;14.07;9.55;;;;;;;12.30;83.36;99801.56;5052240;28;20143;-76
2022/11/24 04:59:29;;;;;;;17.67;10.93;;;;;;;12.31;83.50;99808.66;5052234;28;20036;-78
2022/11/24 05:01:54;;;;;;;18.20;11.20;;;;;;;12.32;83.18;99815.75;5052103;28;20021;-76
2022/11/24 05:04:20;;;;;;;24.15;13.57;;;;;;;12.33;83.32;99814.75;5051734;28;20033;-75
2022/11/24 05:06:46;;;;;;;26.48;15.63;;;;;;;12.37;83.76;99818.81;5052757;28;20017;-76
2022/11/24 05:09:16;;;;;;;24.23;16.05;;;;;;;12.41;83.30;99818.38;5052704;28;20029;-75
2022/11/24 05:11:42;;;;;;;34.35;18.73;;;;;;;12.44;83.51;99820.75;5057386;28;20024;-76
2022/11/24 05:14:08;;;;;;;38.47;25.73;;;;;;;12.45;83.19;99826.97;5059928;28;20052;-76
2022/11/24 05:16:33;;;;;;;29.52;17.63;;;;;;;12.36;83.18;99800.94;5052345;28;20051;-77
2022/11/24 05:18:59;;;;;;;34.58;21.38;;;;;;;12.54;82.75;99826.03;5051815;28;20017;-76
2022/11/24 05:21:24;;;;;;;37.78;20.23;;;;;;;12.56;82.87;99829.44;5051660;28;20029;-77
2022/11/24 05:23:50;;;;;;;24.52;14.57;;;;;;;12.34;82.83;99794.88;5051585;28;20469;-76
2022/11/24 05:26:15;;;;;;;20.88;13.52;;;;;;;12.33;82.20;99790.47;5050990;28;20404;-77
2022/11/24 05:28:40;;;;;;;19.70;11.35;;;;;;;12.53;81.99;99830.59;5051300;28;20361;-75
2022/11/24 05:31:06;;;;;;;16.85;10.15;;;;;;;12.52;82.11;99828.06;5051251;28;20128;-76
2022/11/24 05:33:32;;;;;;;16.65;12.07;;;;;;;12.39;81.68;99806.88;5051269;28;20017;-75
2022/11/24 05:36:05;;;;;;;17.13;10.65;;;;;;;11.89;82.17;99725.78;5050994;28;20029;-74
2022/11/24 05:38:32;;;;;;;19.88;11.93;;;;;;;12.53;81.92;99830.59;5049990;28;20021;-76
2022/11/24 05:41:01;;;;;;;19.52;12.10;;;;;;;12.48;81.70;99832.91;5051305;28;20480;-75
2022/11/24 05:43:27;;;;;;;20.13;12.80;;;;;;;12.43;81.46;99835.22;5050471;28;20033;-74
2022/11/24 05:45:52;;;;;;;29.20;18.77;;;;;;;12.39;81.82;99836.53;5050531;28;20350;-77
2022/11/24 05:48:18;;;;;;;23.67;16.02;;;;;;;12.43;82.43;99840.63;5051227;28;20029;-76
2022/11/24 05:50:43;;;;;;;25.38;17.85;;;;;;;12.37;82.34;99826.91;5050896;28;20033;-76
2022/11/24 05:53:12;;;;;;;31.98;22.25;;;;;;;12.39;82.69;99843.78;5050432;28;20025;-75
2022/11/24 05:55:39;;;;;;;34.03;23.05;;;;;;;12.33;82.65;99830.91;5049172;28;20021;-75
2022/11/24 05:58:07;;;;;;;37.03;23.40;;;;;;;12.38;83.00;99855.59;5050027;28;20116;-74
2022/11/24 06:00:33;;;;;;;41.28;23.92;;;;;;;12.35;82.95;99853.19;5050249;28;20400;-77
2022/11/24 06:02:59;;;;;;;44.00;26.05;;;;;;;12.32;83.10;99858.91;5050110;28;20170;-74
2022/11/24 06:05:26;;;;;;;45.10;23.52;;;;;;;12.35;83.05;99866.69;5050296;28;20100;-73
2022/11/24 06:07:52;;;;;;;32.22;17.80;;;;;;;12.20;82.82;99838.56;5050086;28;20035;-74
2022/11/24 06:10:19;;;;;;;28.05;15.57;;;;;;;12.43;83.05;99877.53;5050259;28;20028;-75
2022/11/24 06:12:45;;;;;;;26.27;18.05;;;;;;;12.28;82.29;99841.34;5050209;28;20029;-74
2022/11/24 06:15:10;;;;;;;43.45;24.75;;;;;;;12.39;82.43;99860.81;5056468;28;20043;-75
2022/11/24 06:17:37;;;;;;;43.88;25.73;;;;;;;12.43;82.57;99878.38;5053985;28;20086;-75
2022/11/24 06:20:04;;;;;;;114.63;73.18;;;;;;;12.48;82.84;99886.00;5055325;28;20021;-76
2022/11/24 06:22:29;;;;;;;40.53;25.80;;;;;;;12.46;82.54;99883.47;5052005;28;20028;-75
2022/11/24 06:24:55;;;;;;;35.83;23.52;;;;;;;12.58;82.63;99886.75;5049623;28;20036;-74
2022/11/24 06:27:20;;;;;;;30.23;21.90;;;;;;;12.60;81.90;99879.34;5047650;28;20040;-75
2022/11/24 06:29:46;;;;;;;34.88;23.73;;;;;;;12.65;81.92;99887.84;5049456;28;20459;-76
2022/11/24 06:32:12;;;;;;;28.58;21.27;;;;;;;12.59;82.58;99882.22;5049873;28;20047;-74
2022/11/24 06:34:37;;;;;;;32.08;21.63;;;;;;;12.70;81.93;99888.22;5047025;28;20412;-75
2022/11/24 06:37:02;;;;;;;25.95;18.50;;;;;;;12.78;81.54;99888.28;5048131;28;20060;-75
2022/11/24 06:39:28;;;;;;;24.30;18.52;;;;;;;12.77;81.92;99880.34;5049233;28;20435;-74
2022/11/24 06:41:53;;;;;;;28.42;19.45;;;;;;;12.86;81.71;99899.16;5049519;28;20545;-73
2022/11/24 06:44:19;;;;;;;32.22;21.45;;;;;;;12.87;82.03;99900.81;5049518;28;20032;-75
2022/11/24 06:46:44;;;;;;;27.05;18.80;;;;;;;12.96;82.04;99886.41;5049566;28;20486;-74
2022/11/24 06:49:10;;;;;;;31.90;19.00;;;;;;;13.06;82.02;99891.69;5049470;28;20109;-76
2022/11/24 06:51:35;;;;;;;37.65;25.13;;;;;;;12.95;82.05;99883.84;5049098;28;20025;-75
2022/11/24 06:54:04;;;;;;;56.40;32.78;;;;;;;13.03;81.87;99900.94;5049415;28;20048;-74
2022/11/24 06:56:30;;;;;;;115.72;68.80;;;;;;;12.90;82.03;99896.97;5049245;28;20086;-75
2022/11/24 06:58:55;;;;;;;77.95;40.55;;;;;;;12.92;82.75;99903.91;5049130;28;20111;-75
2022/11/24 07:01:23;;;;;;;73.43;39.50;;;;;;;12.93;82.46;99908.31;5049435;28;20112;-74
2022/11/24 07:03:50;;;;;;;60.08;33.97;;;;;;;12.85;82.93;99889.34;5063744;28;20424;-76
2022/11/24 07:06:17;;;;;;;61.22;30.75;;;;;;;12.95;82.84;99884.72;5049261;28;20103;-75
2022/11/24 07:08:42;;;;;;;46.35;26.83;;;;;;;13.03;82.86;99884.75;5048942;28;20540;-75
2022/11/24 07:11:11;;;;;;;37.78;22.30;;;;;;;13.12;82.97;99884.84;5049179;28;20116;-75
2022/11/24 07:13:37;;;;;;;29.25;15.27;;;;;;;13.19;82.66;99889.44;5049125;28;20029;-76
2022/11/24 07:16:29;;;;;;;30.33;15.82;;;;;;;13.15;83.03;99877.25;5049349;28;20082;-75
2022/11/24 07:18:55;;;;;;;35.03;20.15;;;;;;;13.14;83.11;99877.44;5006933;28;20085;-76
2022/11/24 07:21:23;;;;;;;59.13;30.75;;;;;;;13.19;82.99;99877.78;4990672;28;20050;-74
2022/11/24 07:23:53;;;;;;;57.53;32.08;;;;;;;13.13;83.13;99873.03;5010366;28;20045;-76
2022/11/24 07:26:19;;;;;;;61.00;32.10;;;;;;;13.13;82.67;99881.97;5013453;28;20138;-75
2022/11/24 07:28:45;;;;;;;75.13;33.58;;;;;;;13.14;82.43;99869.34;5012668;28;20037;-76
2022/11/24 07:31:13;;;;;;;72.43;40.08;;;;;;;12.99;82.13;99853.69;5007161;28;20121;-75
2022/11/24 07:33:39;;;;;;;90.55;51.45;;;;;;;13.05;81.73;99857.63;5006859;28;20169;-76
2022/11/24 07:36:06;;;;;;;104.90;55.63;;;;;;;13.25;81.69;99890.66;5006632;28;20041;-75
2022/11/24 07:38:32;;;;;;;108.40;60.35;;;;;;;13.22;81.50;99888.28;5006889;28;20026;-73
2022/11/24 07:41:03;;;;;;;89.07;41.83;;;;;;;13.17;81.66;99891.47;5012701;28;20046;-75
2022/11/24 07:43:30;;;;;;;72.90;38.47;;;;;;;13.24;81.13;99902.47;5007179;28;20042;-74
2022/11/24 07:45:56;;;;;;;81.40;35.03;;;;;;;13.26;81.60;99897.75;5010045;28;20528;-75
2022/11/24 07:48:21;;;;;;;65.53;31.40;;;;;;;13.19;81.45;99902.94;5010483;28;20117;-75
2022/11/24 07:50:47;;;;;;;73.75;32.75;;;;;;;13.14;81.53;99893.63;5010578;28;20084;-75
2022/11/24 07:53:13;;;;;;;54.60;29.45;;;;;;;13.24;81.35;99891.69;5010418;28;20044;-74
2022/11/24 07:55:38;;;;;;;69.95;31.90;;;;;;;13.28;81.52;99893.03;5030225;28;20109;-75
2022/11/24 07:58:03;;;;;;;56.72;29.40;;;;;;;13.06;81.13;99865.53;5052721;28;20481;-76
2022/11/24 08:00:29;;;;;;;63.72;30.45;;;;;;;13.26;81.67;99892.34;5052933;28;20037;-75
2022/11/24 08:02:54;;;;;;;59.03;30.45;;;;;;;13.31;82.34;99893.56;5052040;28;20025;-75
2022/11/24 08:05:20;;;;;;;60.08;30.10;;;;;;;13.34;81.89;99892.41;5052471;28;20421;-77
2022/11/24 08:07:45;;;;;;;50.92;29.52;;;;;;;13.40;82.57;99897.16;5052191;28;20477;-75
2022/11/24 08:10:11;;;;;;;68.65;31.75;;;;;;;13.46;82.81;99902.75;5052486;28;20051;-75
2022/11/24 08:12:36;;;;;;;57.53;28.67;;;;;;;13.51;82.59;99900.44;5052342;28;20021;-75
2022/11/24 08:15:02;;;;;;;56.53;28.45;;;;;;;13.61;82.42;99903.00;5050963;28;20057;-74
2022/11/24 08:17:28;;;;;;;50.67;29.10;;;;;;;13.67;82.47;99894.25;5051856;28;20036;-73
2022/11/24 08:19:53;;;;;;;60.28;28.42;;;;;;;13.76;82.26;99892.44;5052045;28;20497;-74
2022/11/24 08:22:19;;;;;;;63.80;30.27;;;;;;;13.86;82.12;99891.28;5052100;28;20025;-75
2022/11/24 08:24:47;;;;;;;73.13;30.42;;;;;;;13.95;82.14;99884.91;5051817;28;20032;-75
2022/11/24 08:27:14;;;;;;;75.75;31.15;;;;;;;14.03;82.05;99898.47;5052123;28;20139;-74
2022/11/24 08:29:39;;;;;;;64.80;31.55;;;;;;;14.11;82.05;99912.00;5053683;28;20025;-75
2022/11/24 08:32:05;;;;;;;54.15;26.48;;;;;;;14.21;81.49;99905.59;5054172;28;20036;-75
2022/11/24 08:34:30;;;;;;;56.15;30.02;;;;;;;14.30;81.18;99896.47;5053023;28;20097;-74
2022/11/24 08:36:56;;;;;;;55.58;30.60;;;;;;;14.39;80.94;99895.50;5050872;28;20086;-75
2022/11/24 08:39:21;;;;;;;63.28;32.00;;;;;;;14.53;81.08;99892.13;5052052;28;20499;-75
2022/11/24 08:41:47;;;;;;;61.90;29.52;;;;;;;14.60;80.52;99895.88;5052311;28;20503;-74
2022/11/24 08:44:14;;;;;;;65.15;29.63;;;;;;;14.70;79.44;99891.16;5052239;28;20036;-75
2022/11/24 08:46:40;;;;;;;55.38;27.30;;;;;;;14.76;79.01;99895.88;5051744;28;20029;-75
2022/11/24 08:49:06;;;;;;;64.05;27.00;;;;;;;14.81;79.34;99888.09;5051282;28;20429;-74
2022/11/24 08:51:31;;;;;;;67.63;29.50;;;;;;;14.82;79.22;99875.41;5051283;28;20056;-74
2022/11/24 08:53:59;;;;;;;65.13;26.27;;;;;;;15.02;79.03;99885.69;5052021;28;20480;-76
2022/11/24 08:56:27;;;;;;;44.30;26.05;;;;;;;15.15;78.76;99885.16;5051420;28;20021;-76
2022/11/24 08:58:53;;;;;;;60.78;26.58;;;;;;;15.27;78.53;99894.63;5051709;28;20021;-75
2022/11/24 09:01:18;;;;;;;70.03;30.15;;;;;;;15.23;77.49;99872.44;5051605;28;20025;-75
2022/11/24 09:03:46;;;;;;;55.30;27.15;;;;;;;15.52;76.94;99890.03;5051216;28;20025;-75
2022/11/24 09:06:12;;;;;;;66.97;29.02;;;;;;;15.58;77.44;99897.47;5055364;28;20025;-74
2022/11/24 09:08:37;;;;;;;54.85;26.42;;;;;;;15.55;76.82;99870.69;5052021;28;20433;-75
2022/11/24 09:11:08;;;;;;;69.93;27.27;;;;;;;15.81;76.25;99884.81;5050760;28;20021;-76
2022/11/24 09:13:34;;;;;;;76.45;29.27;;;;;;;15.96;76.20;99885.75;5051562;28;20029;-74
2022/11/24 09:16:03;;;;;;;73.88;30.73;;;;;;;16.06;75.54;99880.97;5051284;28;20400;-76
2022/11/24 09:18:29;;;;;;;69.35;30.63;;;;;;;16.18;75.41;99890.38;5051357;28;20124;-76
2022/11/24 09:20:57;;;;;;;82.57;31.10;;;;;;;16.25;75.16;99880.53;5051293;28;20473;-74
2022/11/24 09:23:22;;;;;;;60.65;27.48;;;;;;;16.46;74.77;99879.84;5051359;28;20480;-75
2022/11/24 09:25:48;;;;;;;74.28;30.50;;;;;;;16.53;73.53;99874.56;5051224;28;20029;-75
2022/11/24 09:28:13;;;;;;;50.95;24.45;;;;;;;16.71;73.15;99886.84;5050807;28;20039;-75
2022/11/24 09:30:39;;;;;;;59.10;29.23;;;;;;;16.78;72.77;99876.09;5049559;28;20025;-76
2022/11/24 09:33:04;;;;;;;49.47;22.77;;;;;;;16.94;71.66;99880.53;5051055;28;20032;-75
2022/11/24 09:35:29;;;;;;;70.60;34.08;;;;;;;16.84;71.39;99850.91;5050774;28;20107;-77
2022/11/24 09:37:55;;;;;;;74.43;37.33;;;;;;;16.70;71.14;99821.84;5051101;28;20043;-75
2022/11/24 09:40:21;;;;;;;76.93;35.35;;;;;;;17.13;70.64;99874.56;5053455;28;20025;-74
2022/11/24 09:42:47;;;;;;;84.47;39.55;;;;;;;17.17;70.34;99871.31;5056339;28;20044;-75
2022/11/24 09:45:25;;;;;;;69.72;35.63;;;;;;;17.12;70.01;99870.16;5051160;28;20029;-75
2022/11/24 09:48:07;;;;;;;74.65;36.78;;;;;;;17.13;69.70;99869.13;5050984;28;20527;-75
2022/11/24 09:50:35;;;;;;;76.07;41.93;;;;;;;17.13;69.65;99874.56;5049578;28;20042;-75
2022/11/24 09:53:04;;;;;;;70.82;38.80;;;;;;;17.07;70.21;99859.00;5050864;28;20047;-75
2022/11/24 09:55:37;;;;;;;85.18;42.33;;;;;;;17.14;70.59;99859.94;5049930;28;20029;-76
2022/11/24 09:58:11;;;;;;;82.82;42.88;;;;;;;16.98;70.41;99833.78;5050112;28;20025;-75
2022/11/24 10:00:37;;;;;;;76.80;44.70;;;;;;;17.15;70.18;99867.94;5050436;28;20052;-75
2022/11/24 10:03:03;;;;;;;96.85;50.95;;;;;;;16.97;70.16;99845.66;5050158;28;20469;-77
2022/11/24 10:05:32;;;;;;;92.72;44.92;;;;;;;17.16;70.50;99863.31;5050793;28;20040;-79
2022/11/24 10:08:20;;;;;;;102.18;61.42;;;;;;;17.25;70.60;99868.50;5048178;28;20116;-74
2022/11/24 10:10:58;;;;;;;84.68;44.95;;;;;;;17.25;70.17;99868.50;5050537;28;20025;-76
2022/11/24 10:13:58;;;;;;;77.72;44.13;;;;;;;17.35;70.28;99858.19;5050242;28;20507;-76
2022/11/24 10:16:24;;;;;;;87.45;44.45;;;;;;;17.42;69.92;99859.16;5050107;28;20031;-78
2022/11/24 10:19:02;;;;;;;103.32;57.53;;;;;;;17.46;70.51;99858.78;5048602;28;20029;-76
2022/11/24 10:21:27;;;;;;;96.88;45.90;;;;;;;17.47;70.37;99865.88;5050272;28;20037;-75
2022/11/24 10:23:58;;;;;;;102.03;46.00;;;;;;;17.49;69.60;99864.66;5049804;28;20036;-74
2022/11/24 10:26:24;;;;;;;91.90;45.95;;;;;;;17.47;69.69;99865.88;5049903;28;20037;-74
2022/11/24 10:28:54;;;;;;;78.85;45.00;;;;;;;17.34;68.98;99855.66;5049903;28;20031;-77
2022/11/24 10:31:33;;;;;;;83.18;44.13;;;;;;;17.24;69.44;99861.38;5052188;28;20024;-75
2022/11/24 10:34:09;;;;;;;81.70;41.08;;;;;;;17.13;69.46;99856.38;5050264;28;20037;-75
2022/11/24 10:36:57;;;;;;;69.82;37.67;;;;;;;16.98;69.68;99877.25;5050411;28;20028;-74
2022/11/24 10:39:28;;;;;;;73.53;39.45;;;;;;;16.80;69.92;99871.31;5049913;28;20112;-74
2022/11/24 10:42:04;;;;;;;67.22;38.45;;;;;;;16.77;70.74;99874.41;5049542;28;20032;-74
2022/11/24 10:44:30;;;;;;;64.68;33.25;;;;;;;16.75;70.98;99876.47;5048431;28;20037;-74
2022/11/24 10:46:55;;;;;;;54.30;30.88;;;;;;;16.65;71.50;99887.56;5055564;28;20098;-74
2022/11/24 10:49:26;;;;;;;55.30;32.13;;;;;;;16.57;72.05;99884.91;5050708;28;20559;-76
2022/11/24 10:52:05;;;;;;;58.28;34.85;;;;;;;16.45;72.62;99883.59;5050243;28;20036;-75
2022/11/24 10:54:32;;;;;;;64.80;31.95;;;;;;;16.33;73.40;99887.75;5049322;28;20408;-74
2022/11/24 10:56:58;;;;;;;64.90;36.17;;;;;;;16.22;73.75;99897.16;5049559;28;20450;-75
2022/11/24 10:59:23;;;;;;;66.25;36.63;;;;;;;15.94;74.68;99863.41;5049474;28;20717;-74
2022/11/24 11:01:52;;;;;;;55.45;37.15;;;;;;;16.05;75.31;99895.56;5049491;28;20155;-74
2022/11/24 11:04:29;;;;;;;55.53;35.10;;;;;;;16.04;76.02;99896.59;5049425;28;20532;-76
2022/11/24 11:07:13;;;;;;;58.15;37.80;;;;;;;16.05;76.06;99895.56;5049289;28;20040;-74
2022/11/24 11:09:38;;;;;;;72.45;37.10;;;;;;;16.03;76.58;99886.75;5049139;28;20039;-76
2022/11/24 11:12:19;;;;;;;75.28;38.88;;;;;;;15.99;76.47;99890.00;5049211;28;20626;-77
2022/11/24 11:14:47;;;;;;;91.20;39.28;;;;;;;15.79;76.76;99862.47;5049165;28;20039;-74
2022/11/24 11:17:34;;;;;;;77.30;40.75;;;;;;;15.90;77.86;99881.03;5049429;28;20473;-77
2022/11/24 11:20:05;;;;;;;72.60;40.85;;;;;;;15.97;77.86;99883.91;5009932;28;20470;-76
2022/11/24 11:22:35;;;;;;;74.57;38.35;;;;;;;15.85;77.62;99882.59;5011509;28;20034;-75